sensor_id;sensor_type;location;lat;lon;timestamp;pressure;altitude;pressure_sealevel;temperature
63689;BMP280;54895;40.928;14.480;2023-02-01T00:00:18;102132.59;;;9.52
63689;BMP280;54895;40.928;14.480;2023-02-01T00:02:45;102121.03;;;9.15
63689;BMP280;54895;40.928;14.480;2023-02-01T00:05:11;102137.34;;;9.48
63689;BMP280;54895;40.928;14.480;2023-02-01T00:07:38;102115.84;;;9.66
63689;BMP280;54895;40.928;14.480;2023-02-01T00:10:05;102130.56;;;9.87
63689;BMP280;54895;40.928;14.480;2023-02-01T00:12:32;102133.00;;;9.65
63689;BMP280;54895;40.928;14.480;2023-02-01T00:14:59;102129.38;;;9.68
63689;BMP280;54895;40.928;14.480;2023-02-01T00:17:25;102128.72;;;9.53
63689;BMP280;54895;40.928;14.480;2023-02-01T00:19:51;102117.59;;;9.69
63689;BMP280;54895;40.928;14.480;2023-02-01T00:22:17;102136.16;;;9.89
63689;BMP280;54895;40.928;14.480;2023-02-01T00:24:44;102129.66;;;9.50
63689;BMP280;54895;40.928;14.480;2023-02-01T00:27:10;102124.75;;;9.43
63689;BMP280;54895;40.928;14.480;2023-02-01T00:29:37;102128.59;;;9.22
63689;BMP280;54895;40.928;14.480;2023-02-01T00:32:03;102136.06;;;9.03
63689;BMP280;54895;40.928;14.480;2023-02-01T00:34:30;102147.09;;;8.67
63689;BMP280;54895;40.928;14.480;2023-02-01T00:36:57;102131.19;;;8.67
63689;BMP280;54895;40.928;14.480;2023-02-01T00:39:23;102140.28;;;8.81
63689;BMP280;54895;40.928;14.480;2023-02-01T00:41:49;102132.06;;;8.93
63689;BMP280;54895;40.928;14.480;2023-02-01T00:44:16;102131.16;;;8.82
63689;BMP280;54895;40.928;14.480;2023-02-01T00:46:42;102137.81;;;8.92
63689;BMP280;54895;40.928;14.480;2023-02-01T00:49:08;102124.34;;;8.95
63689;BMP280;54895;40.928;14.480;2023-02-01T00:51:35;102126.09;;;9.18
63689;BMP280;54895;40.928;14.480;2023-02-01T00:54:01;102138.13;;;9.14
63689;BMP280;54895;40.928;14.480;2023-02-01T00:56:29;102141.94;;;9.27
63689;BMP280;54895;40.928;14.480;2023-02-01T00:58:56;102139.75;;;8.77
63689;BMP280;54895;40.928;14.480;2023-02-01T01:01:25;102128.94;;;8.80
63689;BMP280;54895;40.928;14.480;2023-02-01T01:03:57;102128.59;;;8.87
63689;BMP280;54895;40.928;14.480;2023-02-01T01:06:26;102116.19;;;8.99
63689;BMP280;54895;40.928;14.480;2023-02-01T01:08:55;102133.69;;;8.91
63689;BMP280;54895;40.928;14.480;2023-02-01T01:11:24;102131.59;;;8.95
63689;BMP280;54895;40.928;14.480;2023-02-01T01:13:51;102128.66;;;8.93
63689;BMP280;54895;40.928;14.480;2023-02-01T01:16:20;102134.78;;;8.99
63689;BMP280;54895;40.928;14.480;2023-02-01T01:18:47;102128.56;;;9.02
63689;BMP280;54895;40.928;14.480;2023-02-01T01:21:15;102119.03;;;8.95
63689;BMP280;54895;40.928;14.480;2023-02-01T01:23:43;102120.53;;;8.82
63689;BMP280;54895;40.928;14.480;2023-02-01T01:26:14;102113.22;;;8.77
63689;BMP280;54895;40.928;14.480;2023-02-01T01:28:41;102125.66;;;8.71
63689;BMP280;54895;40.928;14.480;2023-02-01T01:31:11;102102.06;;;8.15
63689;BMP280;54895;40.928;14.480;2023-02-01T01:33:38;102127.28;;;8.83
63689;BMP280;54895;40.928;14.480;2023-02-01T01:36:08;102120.38;;;8.56
63689;BMP280;54895;40.928;14.480;2023-02-01T01:38:38;102116.91;;;8.65
63689;BMP280;54895;40.928;14.480;2023-02-01T01:41:06;102115.47;;;8.84
63689;BMP280;54895;40.928;14.480;2023-02-01T01:43:54;102118.84;;;8.99
63689;BMP280;54895;40.928;14.480;2023-02-01T01:46:25;102108.16;;;8.93
63689;BMP280;54895;40.928;14.480;2023-02-01T01:51:27;102122.69;;;8.49
63689;BMP280;54895;40.928;14.480;2023-02-01T01:54:11;102115.06;;;8.27
63689;BMP280;54895;40.928;14.480;2023-02-01T01:56:39;102094.13;;;8.15
63689;BMP280;54895;40.928;14.480;2023-02-01T01:59:07;102100.44;;;8.32
63689;BMP280;54895;40.928;14.480;2023-02-01T02:01:35;102103.00;;;8.41
63689;BMP280;54895;40.928;14.480;2023-02-01T02:04:02;102117.59;;;8.80
63689;BMP280;54895;40.928;14.480;2023-02-01T02:06:48;102113.78;;;8.52
63689;BMP280;54895;40.928;14.480;2023-02-01T02:09:17;102084.34;;;8.21
63689;BMP280;54895;40.928;14.480;2023-02-01T02:11:43;102085.28;;;8.18
63689;BMP280;54895;40.928;14.480;2023-02-01T02:14:12;102102.44;;;8.37
63689;BMP280;54895;40.928;14.480;2023-02-01T02:17:01;102100.34;;;8.41
63689;BMP280;54895;40.928;14.480;2023-02-01T02:20:39;102095.97;;;8.38
63689;BMP280;54895;40.928;14.480;2023-02-01T02:45:14;102083.19;;;7.84
63689;BMP280;54895;40.928;14.480;2023-02-01T02:53:51;102069.91;;;7.46
63689;BMP280;54895;40.928;14.480;2023-02-01T02:56:38;102061.38;;;7.51
63689;BMP280;54895;40.928;14.480;2023-02-01T02:59:25;102064.97;;;7.39
63689;BMP280;54895;40.928;14.480;2023-02-01T03:02:13;102073.94;;;7.65
63689;BMP280;54895;40.928;14.480;2023-02-01T03:04:58;102063.72;;;7.87
63689;BMP280;54895;40.928;14.480;2023-02-01T03:10:29;102065.25;;;7.79
63689;BMP280;54895;40.928;14.480;2023-02-01T03:13:02;102057.03;;;7.62
63689;BMP280;54895;40.928;14.480;2023-02-01T03:15:36;102062.91;;;7.57
63689;BMP280;54895;40.928;14.480;2023-02-01T03:18:16;102067.66;;;7.91
63689;BMP280;54895;40.928;14.480;2023-02-01T03:20:48;102049.56;;;7.90
63689;BMP280;54895;40.928;14.480;2023-02-01T03:23:18;102068.06;;;7.99
63689;BMP280;54895;40.928;14.480;2023-02-01T03:25:47;102051.03;;;7.76
63689;BMP280;54895;40.928;14.480;2023-02-01T03:28:15;102048.28;;;7.85
63689;BMP280;54895;40.928;14.480;2023-02-01T03:30:45;102056.91;;;8.24
63689;BMP280;54895;40.928;14.480;2023-02-01T03:33:15;102050.88;;;8.09
63689;BMP280;54895;40.928;14.480;2023-02-01T03:41:18;102060.84;;;7.99
63689;BMP280;54895;40.928;14.480;2023-02-01T03:43:55;102071.00;;;8.30
63689;BMP280;54895;40.928;14.480;2023-02-01T03:46:33;102060.31;;;7.72
63689;BMP280;54895;40.928;14.480;2023-02-01T03:49:06;102074.00;;;7.56
63689;BMP280;54895;40.928;14.480;2023-02-01T03:51:36;102071.66;;;7.49
63689;BMP280;54895;40.928;14.480;2023-02-01T03:54:06;102055.63;;;7.52
63689;BMP280;54895;40.928;14.480;2023-02-01T03:56:37;102063.94;;;7.60
63689;BMP280;54895;40.928;14.480;2023-02-01T03:59:04;102070.72;;;7.61
63689;BMP280;54895;40.928;14.480;2023-02-01T04:01:34;102069.31;;;7.89
63689;BMP280;54895;40.928;14.480;2023-02-01T04:04:01;102059.22;;;7.78
63689;BMP280;54895;40.928;14.480;2023-02-01T04:06:27;102066.19;;;7.76
63689;BMP280;54895;40.928;14.480;2023-02-01T04:08:59;102070.53;;;7.64
63689;BMP280;54895;40.928;14.480;2023-02-01T04:11:25;102074.19;;;7.20
63689;BMP280;54895;40.928;14.480;2023-02-01T04:13:53;102069.56;;;7.06
63689;BMP280;54895;40.928;14.480;2023-02-01T04:16:19;102072.63;;;7.37
63689;BMP280;54895;40.928;14.480;2023-02-01T04:18:45;102073.38;;;7.61
63689;BMP280;54895;40.928;14.480;2023-02-01T04:21:12;102081.78;;;7.74
63689;BMP280;54895;40.928;14.480;2023-02-01T04:23:38;102081.78;;;7.74
63689;BMP280;54895;40.928;14.480;2023-02-01T04:26:04;102072.53;;;7.55
63689;BMP280;54895;40.928;14.480;2023-02-01T04:28:31;102078.16;;;7.48
63689;BMP280;54895;40.928;14.480;2023-02-01T04:30:57;102079.75;;;7.92
63689;BMP280;54895;40.928;14.480;2023-02-01T04:33:24;102075.72;;;8.11
63689;BMP280;54895;40.928;14.480;2023-02-01T04:35:51;102077.31;;;7.80
63689;BMP280;54895;40.928;14.480;2023-02-01T04:38:17;102084.00;;;7.75
63689;BMP280;54895;40.928;14.480;2023-02-01T04:40:46;102080.97;;;7.68
63689;BMP280;54895;40.928;14.480;2023-02-01T04:43:13;102069.69;;;7.35
63689;BMP280;54895;40.928;14.480;2023-02-01T04:45:39;102066.03;;;7.09
63689;BMP280;54895;40.928;14.480;2023-02-01T04:48:05;102072.16;;;7.15
63689;BMP280;54895;40.928;14.480;2023-02-01T04:50:32;102079.06;;;7.45
63689;BMP280;54895;40.928;14.480;2023-02-01T04:52:58;102068.75;;;7.85
63689;BMP280;54895;40.928;14.480;2023-02-01T04:55:24;102083.41;;;7.95
63689;BMP280;54895;40.928;14.480;2023-02-01T04:57:50;102090.88;;;7.35
63689;BMP280;54895;40.928;14.480;2023-02-01T05:00:17;102079.50;;;7.20
63689;BMP280;54895;40.928;14.480;2023-02-01T05:02:43;102084.03;;;6.87
63689;BMP280;54895;40.928;14.480;2023-02-01T05:05:10;102085.34;;;6.91
63689;BMP280;54895;40.928;14.480;2023-02-01T05:07:36;102088.38;;;7.08
63689;BMP280;54895;40.928;14.480;2023-02-01T05:10:03;102090.94;;;6.93
63689;BMP280;54895;40.928;14.480;2023-02-01T05:12:29;102094.00;;;7.01
63689;BMP280;54895;40.928;14.480;2023-02-01T05:15:14;102093.25;;;7.00
63689;BMP280;54895;40.928;14.480;2023-02-01T05:17:41;102082.84;;;6.97
63689;BMP280;54895;40.928;14.480;2023-02-01T05:20:08;102080.72;;;7.10
63689;BMP280;54895;40.928;14.480;2023-02-01T05:22:34;102076.25;;;6.92
63689;BMP280;54895;40.928;14.480;2023-02-01T05:25:01;102091.06;;;6.99
63689;BMP280;54895;40.928;14.480;2023-02-01T05:27:29;102083.31;;;6.95
63689;BMP280;54895;40.928;14.480;2023-02-01T05:29:56;102088.97;;;7.59
63689;BMP280;54895;40.928;14.480;2023-02-01T05:32:22;102098.59;;;7.24
63689;BMP280;54895;40.928;14.480;2023-02-01T05:34:49;102103.75;;;7.18
63689;BMP280;54895;40.928;14.480;2023-02-01T05:37:15;102098.53;;;7.00
63689;BMP280;54895;40.928;14.480;2023-02-01T05:39:41;102104.84;;;7.03
63689;BMP280;54895;40.928;14.480;2023-02-01T05:42:08;102119.81;;;7.15
63689;BMP280;54895;40.928;14.480;2023-02-01T05:44:34;102116.31;;;7.09
63689;BMP280;54895;40.928;14.480;2023-02-01T05:47:00;102131.72;;;7.19
63689;BMP280;54895;40.928;14.480;2023-02-01T05:49:26;102125.09;;;6.82
63689;BMP280;54895;40.928;14.480;2023-02-01T05:51:53;102123.47;;;6.85
63689;BMP280;54895;40.928;14.480;2023-02-01T05:54:19;102125.56;;;7.04
63689;BMP280;54895;40.928;14.480;2023-02-01T05:56:45;102129.00;;;6.96
63689;BMP280;54895;40.928;14.480;2023-02-01T05:59:11;102136.94;;;6.87
63689;BMP280;54895;40.928;14.480;2023-02-01T06:01:38;102125.75;;;7.01
63689;BMP280;54895;40.928;14.480;2023-02-01T06:04:04;102100.50;;;6.91
63689;BMP280;54895;40.928;14.480;2023-02-01T06:06:30;102122.22;;;7.04
63689;BMP280;54895;40.928;14.480;2023-02-01T06:08:57;102114.00;;;6.93
63689;BMP280;54895;40.928;14.480;2023-02-01T06:11:23;102124.84;;;7.60
63689;BMP280;54895;40.928;14.480;2023-02-01T06:13:50;102115.09;;;7.19
63689;BMP280;54895;40.928;14.480;2023-02-01T06:16:16;102142.53;;;7.30
63689;BMP280;54895;40.928;14.480;2023-02-01T06:18:42;102122.59;;;7.20
63689;BMP280;54895;40.928;14.480;2023-02-01T06:21:09;102131.84;;;7.16
63689;BMP280;54895;40.928;14.480;2023-02-01T06:23:35;102147.69;;;7.34
63689;BMP280;54895;40.928;14.480;2023-02-01T06:26:04;102150.81;;;7.47
63689;BMP280;54895;40.928;14.480;2023-02-01T06:28:32;102153.53;;;7.38
63689;BMP280;54895;40.928;14.480;2023-02-01T06:31:03;102138.00;;;7.31
63689;BMP280;54895;40.928;14.480;2023-02-01T06:33:36;102147.50;;;7.37
63689;BMP280;54895;40.928;14.480;2023-02-01T06:36:05;102160.81;;;7.75
63689;BMP280;54895;40.928;14.480;2023-02-01T06:38:32;102146.13;;;7.98
63689;BMP280;54895;40.928;14.480;2023-02-01T06:41:03;102152.47;;;7.91
63689;BMP280;54895;40.928;14.480;2023-02-01T06:43:30;102158.88;;;7.85
63689;BMP280;54895;40.928;14.480;2023-02-01T06:46:02;102169.63;;;7.81
63689;BMP280;54895;40.928;14.480;2023-02-01T06:48:30;102175.41;;;7.94
63689;BMP280;54895;40.928;14.480;2023-02-01T06:50:56;102173.13;;;8.25
63689;BMP280;54895;40.928;14.480;2023-02-01T06:53:23;102168.28;;;8.38
63689;BMP280;54895;40.928;14.480;2023-02-01T06:55:58;102167.41;;;8.56
63689;BMP280;54895;40.928;14.480;2023-02-01T06:58:27;102166.88;;;8.66
63689;BMP280;54895;40.928;14.480;2023-02-01T07:00:53;102173.91;;;8.69
63689;BMP280;54895;40.928;14.480;2023-02-01T07:03:19;102175.81;;;8.69
63689;BMP280;54895;40.928;14.480;2023-02-01T07:05:46;102169.13;;;8.73
63689;BMP280;54895;40.928;14.480;2023-02-01T07:08:12;102175.97;;;8.80
63689;BMP280;54895;40.928;14.480;2023-02-01T07:10:38;102187.97;;;8.90
63689;BMP280;54895;40.928;14.480;2023-02-01T07:13:05;102173.88;;;8.84
63689;BMP280;54895;40.928;14.480;2023-02-01T07:15:31;102171.97;;;8.70
63689;BMP280;54895;40.928;14.480;2023-02-01T07:17:58;102176.63;;;8.46
63689;BMP280;54895;40.928;14.480;2023-02-01T07:20:24;102167.75;;;8.34
63689;BMP280;54895;40.928;14.480;2023-02-01T07:22:55;102168.84;;;8.57
63689;BMP280;54895;40.928;14.480;2023-02-01T07:25:23;102164.81;;;8.61
63689;BMP280;54895;40.928;14.480;2023-02-01T07:27:49;102171.06;;;8.87
63689;BMP280;54895;40.928;14.480;2023-02-01T07:30:15;102176.97;;;8.97
63689;BMP280;54895;40.928;14.480;2023-02-01T07:32:42;102185.16;;;9.28
63689;BMP280;54895;40.928;14.480;2023-02-01T07:35:08;102179.13;;;9.62
63689;BMP280;54895;40.928;14.480;2023-02-01T07:37:35;102173.13;;;9.87
63689;BMP280;54895;40.928;14.480;2023-02-01T07:40:02;102192.63;;;10.04
63689;BMP280;54895;40.928;14.480;2023-02-01T07:42:28;102173.78;;;9.82
63689;BMP280;54895;40.928;14.480;2023-02-01T07:44:54;102192.53;;;9.93
63689;BMP280;54895;40.928;14.480;2023-02-01T07:47:20;102190.31;;;9.91
63689;BMP280;54895;40.928;14.480;2023-02-01T07:49:47;102178.94;;;10.11
63689;BMP280;54895;40.928;14.480;2023-02-01T07:52:13;102188.78;;;10.56
63689;BMP280;54895;40.928;14.480;2023-02-01T07:54:41;102191.81;;;10.69
63689;BMP280;54895;40.928;14.480;2023-02-01T07:57:08;102205.84;;;10.69
63689;BMP280;54895;40.928;14.480;2023-02-01T07:59:34;102194.31;;;10.83
63689;BMP280;54895;40.928;14.480;2023-02-01T08:02:01;102193.41;;;11.34
63689;BMP280;54895;40.928;14.480;2023-02-01T08:04:27;102199.66;;;11.73
63689;BMP280;54895;40.928;14.480;2023-02-01T08:06:55;102198.31;;;11.46
63689;BMP280;54895;40.928;14.480;2023-02-01T08:09:21;102193.50;;;11.50
63689;BMP280;54895;40.928;14.480;2023-02-01T08:11:48;102194.03;;;11.65
63689;BMP280;54895;40.928;14.480;2023-02-01T08:14:14;102198.91;;;11.83
63689;BMP280;54895;40.928;14.480;2023-02-01T08:16:40;102212.59;;;12.13
63689;BMP280;54895;40.928;14.480;2023-02-01T08:19:06;102206.53;;;12.18
63689;BMP280;54895;40.928;14.480;2023-02-01T08:21:33;102206.56;;;12.40
63689;BMP280;54895;40.928;14.480;2023-02-01T08:24:07;102194.44;;;12.50
63689;BMP280;54895;40.928;14.480;2023-02-01T08:26:34;102208.50;;;12.67
63689;BMP280;54895;40.928;14.480;2023-02-01T08:29:03;102211.38;;;12.91
63689;BMP280;54895;40.928;14.480;2023-02-01T08:31:30;102217.91;;;13.01
63689;BMP280;54895;40.928;14.480;2023-02-01T08:33:58;102221.59;;;12.87
63689;BMP280;54895;40.928;14.480;2023-02-01T08:36:27;102223.25;;;13.01
63689;BMP280;54895;40.928;14.480;2023-02-01T08:38:54;102226.31;;;13.37
63689;BMP280;54895;40.928;14.480;2023-02-01T08:41:23;102232.34;;;13.49
63689;BMP280;54895;40.928;14.480;2023-02-01T08:43:50;102223.84;;;13.50
63689;BMP280;54895;40.928;14.480;2023-02-01T08:46:16;102223.25;;;13.68
63689;BMP280;54895;40.928;14.480;2023-02-01T08:48:45;102235.53;;;13.93
63689;BMP280;54895;40.928;14.480;2023-02-01T08:51:13;102244.38;;;14.18
63689;BMP280;54895;40.928;14.480;2023-02-01T08:53:40;102241.41;;;14.21
63689;BMP280;54895;40.928;14.480;2023-02-01T08:56:10;102248.66;;;14.32
63689;BMP280;54895;40.928;14.480;2023-02-01T08:58:36;102251.13;;;14.83
63689;BMP280;54895;40.928;14.480;2023-02-01T09:01:05;102262.38;;;15.24
63689;BMP280;54895;40.928;14.480;2023-02-01T09:03:31;102254.44;;;14.89
63689;BMP280;54895;40.928;14.480;2023-02-01T09:06:06;102268.59;;;15.14
63689;BMP280;54895;40.928;14.480;2023-02-01T09:08:33;102270.97;;;15.60
63689;BMP280;54895;40.928;14.480;2023-02-01T09:11:05;102262.09;;;15.46
63689;BMP280;54895;40.928;14.480;2023-02-01T09:13:31;102271.38;;;15.45
63689;BMP280;54895;40.928;14.480;2023-02-01T09:15:59;102274.81;;;16.01
63689;BMP280;54895;40.928;14.480;2023-02-01T09:18:26;102256.25;;;16.16
63689;BMP280;54895;40.928;14.480;2023-02-01T09:20:52;102267.44;;;16.20
63689;BMP280;54895;40.928;14.480;2023-02-01T09:23:19;102284.25;;;16.65
63689;BMP280;54895;40.928;14.480;2023-02-01T09:25:46;102282.16;;;16.45
63689;BMP280;54895;40.928;14.480;2023-02-01T09:28:16;102282.41;;;16.86
63689;BMP280;54895;40.928;14.480;2023-02-01T09:30:43;102287.34;;;16.69
63689;BMP280;54895;40.928;14.480;2023-02-01T09:33:09;102293.34;;;16.75
63689;BMP280;54895;40.928;14.480;2023-02-01T09:35:35;102294.00;;;16.94
63689;BMP280;54895;40.928;14.480;2023-02-01T09:38:02;102292.34;;;16.78
63689;BMP280;54895;40.928;14.480;2023-02-01T09:40:28;102298.81;;;16.56
63689;BMP280;54895;40.928;14.480;2023-02-01T09:46:06;102298.75;;;17.27
63689;BMP280;54895;40.928;14.480;2023-02-01T09:48:41;102285.06;;;17.25
63689;BMP280;54895;40.928;14.480;2023-02-01T09:51:21;102295.25;;;17.52
63689;BMP280;54895;40.928;14.480;2023-02-01T09:54:02;102288.47;;;17.72
63689;BMP280;54895;40.928;14.480;2023-02-01T09:56:46;102288.38;;;17.98
63689;BMP280;54895;40.928;14.480;2023-02-01T10:01:55;102290.78;;;17.88
63689;BMP280;54895;40.928;14.480;2023-02-01T10:04:22;102289.59;;;17.97
63689;BMP280;54895;40.928;14.480;2023-02-01T10:09:52;102277.31;;;18.09
63689;BMP280;54895;40.928;14.480;2023-02-01T10:15:23;102252.13;;;17.99
63689;BMP280;54895;40.928;14.480;2023-02-01T10:28:46;102224.41;;;17.57
63689;BMP280;54895;40.928;14.480;2023-02-01T10:31:14;102218.72;;;18.22
63689;BMP280;54895;40.928;14.480;2023-02-01T10:33:47;102230.75;;;18.01
63689;BMP280;54895;40.928;14.480;2023-02-01T10:38:46;102231.88;;;17.85
63689;BMP280;54895;40.928;14.480;2023-02-01T10:41:17;102215.44;;;17.96
63689;BMP280;54895;40.928;14.480;2023-02-01T10:43:48;102212.84;;;18.31
63689;BMP280;54895;40.928;14.480;2023-02-01T10:46:16;102207.41;;;18.24
63689;BMP280;54895;40.928;14.480;2023-02-01T10:48:42;102198.34;;;18.14
63689;BMP280;54895;40.928;14.480;2023-02-01T10:51:22;102200.47;;;17.67
63689;BMP280;54895;40.928;14.480;2023-02-01T10:53:58;102193.44;;;17.43
63689;BMP280;54895;40.928;14.480;2023-02-01T10:56:27;102193.19;;;17.75
63689;BMP280;54895;40.928;14.480;2023-02-01T10:59:05;102195.13;;;18.15
63689;BMP280;54895;40.928;14.480;2023-02-01T11:01:39;102191.53;;;18.41
63689;BMP280;54895;40.928;14.480;2023-02-01T11:04:16;102175.53;;;18.85
63689;BMP280;54895;40.928;14.480;2023-02-01T11:07:04;102196.34;;;19.20
63689;BMP280;54895;40.928;14.480;2023-02-01T11:09:38;102200.22;;;19.04
63689;BMP280;54895;40.928;14.480;2023-02-01T11:12:22;102178.25;;;18.93
63689;BMP280;54895;40.928;14.480;2023-02-01T11:14:49;102166.78;;;19.22
63689;BMP280;54895;40.928;14.480;2023-02-01T11:17:24;102168.66;;;19.50
63689;BMP280;54895;40.928;14.480;2023-02-01T11:20:01;102170.59;;;19.72
63689;BMP280;54895;40.928;14.480;2023-02-01T11:22:28;102165.03;;;19.47
63689;BMP280;54895;40.928;14.480;2023-02-01T11:24:56;102162.69;;;19.36
63689;BMP280;54895;40.928;14.480;2023-02-01T11:27:24;102148.06;;;18.94
63689;BMP280;54895;40.928;14.480;2023-02-01T11:29:56;102152.97;;;18.68
63689;BMP280;54895;40.928;14.480;2023-02-01T11:32:24;102146.00;;;18.02
63689;BMP280;54895;40.928;14.480;2023-02-01T11:35:05;102135.75;;;17.52
63689;BMP280;54895;40.928;14.480;2023-02-01T11:37:41;102137.47;;;17.42
63689;BMP280;54895;40.928;14.480;2023-02-01T11:43:01;102118.94;;;17.59
63689;BMP280;54895;40.928;14.480;2023-02-01T11:45:33;102083.09;;;17.02
63689;BMP280;54895;40.928;14.480;2023-02-01T11:48:01;102106.78;;;17.45
63689;BMP280;54895;40.928;14.480;2023-02-01T11:53:25;102110.44;;;17.34
63689;BMP280;54895;40.928;14.480;2023-02-01T12:04:47;102080.66;;;17.12
63689;BMP280;54895;40.928;14.480;2023-02-01T12:07:23;102088.06;;;17.60
63689;BMP280;54895;40.928;14.480;2023-02-01T12:10:41;102091.28;;;17.58
63689;BMP280;54895;40.928;14.480;2023-02-01T12:21:32;102077.66;;;18.20
63689;BMP280;54895;40.928;14.480;2023-02-01T12:27:02;102067.69;;;18.43
63689;BMP280;54895;40.928;14.480;2023-02-01T12:32:29;102056.69;;;18.26
63689;BMP280;54895;40.928;14.480;2023-02-01T12:43:09;102051.28;;;18.26
63689;BMP280;54895;40.928;14.480;2023-02-01T12:45:50;102051.16;;;18.39
63689;BMP280;54895;40.928;14.480;2023-02-01T12:50:56;102049.56;;;18.00
63689;BMP280;54895;40.928;14.480;2023-02-01T12:56:02;102055.72;;;18.08
63689;BMP280;54895;40.928;14.480;2023-02-01T13:01:42;102061.94;;;17.68
63689;BMP280;54895;40.928;14.480;2023-02-01T13:07:03;102048.78;;;18.85
63689;BMP280;54895;40.928;14.480;2023-02-01T13:12:08;102017.63;;;18.70
63689;BMP280;54895;40.928;14.480;2023-02-01T13:14:46;102034.38;;;18.90
63689;BMP280;54895;40.928;14.480;2023-02-01T13:17:16;102024.22;;;18.39
63689;BMP280;54895;40.928;14.480;2023-02-01T13:20:05;102047.25;;;18.55
63689;BMP280;54895;40.928;14.480;2023-02-01T13:22:37;102050.19;;;18.86
63689;BMP280;54895;40.928;14.480;2023-02-01T13:27:37;102035.63;;;18.67
63689;BMP280;54895;40.928;14.480;2023-02-01T13:30:10;102044.69;;;18.42
63689;BMP280;54895;40.928;14.480;2023-02-01T13:38:27;102035.00;;;18.39
63689;BMP280;54895;40.928;14.480;2023-02-01T13:41:27;102035.31;;;18.28
63689;BMP280;54895;40.928;14.480;2023-02-01T13:44:31;102036.25;;;18.38
63689;BMP280;54895;40.928;14.480;2023-02-01T13:46:46;102027.50;;;18.52
63689;BMP280;54895;40.928;14.480;2023-02-01T13:49:27;102030.03;;;18.58
63689;BMP280;54895;40.928;14.480;2023-02-01T13:51:56;102028.94;;;18.53
63689;BMP280;54895;40.928;14.480;2023-02-01T13:54:34;102029.47;;;18.67
63689;BMP280;54895;40.928;14.480;2023-02-01T13:57:03;102031.03;;;18.40
63689;BMP280;54895;40.928;14.480;2023-02-01T14:06:14;102030.84;;;17.95
63689;BMP280;54895;40.928;14.480;2023-02-01T14:10:54;102031.97;;;18.07
63689;BMP280;54895;40.928;14.480;2023-02-01T14:13:48;102022.88;;;17.82
63689;BMP280;54895;40.928;14.480;2023-02-01T14:16:16;102020.88;;;18.10
63689;BMP280;54895;40.928;14.480;2023-02-01T14:32:02;102013.94;;;17.31
63689;BMP280;54895;40.928;14.480;2023-02-01T14:35:08;102015.19;;;17.09
63689;BMP280;54895;40.928;14.480;2023-02-01T14:37:30;102013.69;;;17.01
63689;BMP280;54895;40.928;14.480;2023-02-01T14:40:00;102022.00;;;17.10
63689;BMP280;54895;40.928;14.480;2023-02-01T14:53:09;102018.38;;;17.49
63689;BMP280;54895;40.928;14.480;2023-02-01T15:00:59;102027.13;;;17.70
63689;BMP280;54895;40.928;14.480;2023-02-01T15:03:47;102024.13;;;17.53
63689;BMP280;54895;40.928;14.480;2023-02-01T15:06:37;102040.47;;;17.75
63689;BMP280;54895;40.928;14.480;2023-02-01T15:09:16;102033.88;;;17.84
63689;BMP280;54895;40.928;14.480;2023-02-01T15:14:31;102043.47;;;17.72
63689;BMP280;54895;40.928;14.480;2023-02-01T15:16:57;102041.00;;;17.53
63689;BMP280;54895;40.928;14.480;2023-02-01T15:19:26;102035.09;;;17.27
63689;BMP280;54895;40.928;14.480;2023-02-01T15:21:55;102035.94;;;16.68
63689;BMP280;54895;40.928;14.480;2023-02-01T15:24:29;102023.78;;;16.54
63689;BMP280;54895;40.928;14.480;2023-02-01T15:27:03;102029.63;;;16.78
63689;BMP280;54895;40.928;14.480;2023-02-01T15:29:30;102028.78;;;16.70
63689;BMP280;54895;40.928;14.480;2023-02-01T15:31:59;102023.13;;;16.74
63689;BMP280;54895;40.928;14.480;2023-02-01T15:34:48;102022.06;;;16.44
63689;BMP280;54895;40.928;14.480;2023-02-01T15:37:15;102027.63;;;16.46
63689;BMP280;54895;40.928;14.480;2023-02-01T15:42:49;102026.44;;;16.67
63689;BMP280;54895;40.928;14.480;2023-02-01T15:45:19;102018.38;;;16.67
63689;BMP280;54895;40.928;14.480;2023-02-01T15:47:49;102030.16;;;16.64
63689;BMP280;54895;40.928;14.480;2023-02-01T15:50:19;102023.50;;;16.78
63689;BMP280;54895;40.928;14.480;2023-02-01T15:52:48;102018.69;;;16.97
63689;BMP280;54895;40.928;14.480;2023-02-01T15:55:20;102023.06;;;17.28
63689;BMP280;54895;40.928;14.480;2023-02-01T15:57:48;102028.88;;;17.19
63689;BMP280;54895;40.928;14.480;2023-02-01T16:00:30;102024.09;;;17.04
63689;BMP280;54895;40.928;14.480;2023-02-01T16:03:04;102020.38;;;16.87
63689;BMP280;54895;40.928;14.480;2023-02-01T16:05:36;102029.72;;;16.73
63689;BMP280;54895;40.928;14.480;2023-02-01T16:08:13;102035.34;;;16.62
63689;BMP280;54895;40.928;14.480;2023-02-01T16:10:46;102018.19;;;16.52
63689;BMP280;54895;40.928;14.480;2023-02-01T16:13:13;102027.63;;;16.58
63689;BMP280;54895;40.928;14.480;2023-02-01T16:15:40;102044.41;;;16.59
63689;BMP280;54895;40.928;14.480;2023-02-01T16:18:07;102045.69;;;16.58
63689;BMP280;54895;40.928;14.480;2023-02-01T16:20:37;102036.84;;;16.37
63689;BMP280;54895;40.928;14.480;2023-02-01T16:23:05;102037.88;;;16.21
63689;BMP280;54895;40.928;14.480;2023-02-01T16:25:32;102017.72;;;16.15
63689;BMP280;54895;40.928;14.480;2023-02-01T16:27:58;102023.44;;;16.11
63689;BMP280;54895;40.928;14.480;2023-02-01T16:30:25;102020.53;;;15.83
63689;BMP280;54895;40.928;14.480;2023-02-01T16:32:59;102039.63;;;15.93
63689;BMP280;54895;40.928;14.480;2023-02-01T16:35:32;102017.44;;;15.79
63689;BMP280;54895;40.928;14.480;2023-02-01T16:38:08;102037.25;;;16.15
63689;BMP280;54895;40.928;14.480;2023-02-01T16:40:39;102020.53;;;16.09
63689;BMP280;54895;40.928;14.480;2023-02-01T16:43:17;102042.44;;;16.13
63689;BMP280;54895;40.928;14.480;2023-02-01T16:45:45;102047.28;;;16.28
63689;BMP280;54895;40.928;14.480;2023-02-01T16:50:50;102038.69;;;16.29
63689;BMP280;54895;40.928;14.480;2023-02-01T16:53:18;102036.00;;;16.29
63689;BMP280;54895;40.928;14.480;2023-02-01T16:55:44;102036.19;;;16.44
63689;BMP280;54895;40.928;14.480;2023-02-01T16:58:12;102040.50;;;16.60